Deatsville, Kentucky
Current Conditions -  °F | °C
As of 2:56 AM on Monday 22 Dec 2014 (Local Time) from KSDF Reporting Station
Overcast Overcast  
Wind Chill: 36°   Ceiling: 4800
Heat Index: 36°   Visibility: 10mi
Dew Point: 29°   Wind: 0mph
Humidity: 76%   Direction: NA
Pressure: 30.02"   Gusts: NA
Location:  37.9212°N, 85.4864°W
Report Text: KSDF 220756Z 00000KT 10SM OVC048 02/M02 A3002 RMK AO2 SLP170 T00221017
Loading
Personal Weather Stations






























Interactive Weather Map New forecast layout! Learn more

10-Day Weather Forecast

Advertisements
Track Severe Weather on mobile